sensor_id;sensor_type;location;lat;lon;timestamp;P1;durP1;ratioP1;P2;durP2;ratioP2
7501;SDS011;3792;47.740;7.606;2023-02-15T00:01:30;30.40;;;19.50;;
7501;SDS011;3792;47.740;7.606;2023-02-15T00:03:58;70.37;;;20.63;;
7501;SDS011;3792;47.740;7.606;2023-02-15T00:06:25;51.20;;;19.23;;
7501;SDS011;3792;47.740;7.606;2023-02-15T00:08:54;58.00;;;19.10;;
7501;SDS011;3792;47.740;7.606;2023-02-15T00:11:22;37.13;;;18.53;;
7501;SDS011;3792;47.740;7.606;2023-02-15T00:14:03;29.47;;;17.50;;
7501;SDS011;3792;47.740;7.606;2023-02-15T00:16:30;32.20;;;17.87;;
7501;SDS011;3792;47.740;7.606;2023-02-15T00:18:57;53.80;;;18.87;;
7501;SDS011;3792;47.740;7.606;2023-02-15T00:21:27;36.30;;;17.47;;
7501;SDS011;3792;47.740;7.606;2023-02-15T00:23:56;41.13;;;18.13;;
7501;SDS011;3792;47.740;7.606;2023-02-15T00:26:24;26.57;;;17.63;;
7501;SDS011;3792;47.740;7.606;2023-02-15T00:28:51;36.90;;;18.73;;
7501;SDS011;3792;47.740;7.606;2023-02-15T00:31:18;28.00;;;18.23;;
7501;SDS011;3792;47.740;7.606;2023-02-15T00:33:46;28.83;;;18.53;;
7501;SDS011;3792;47.740;7.606;2023-02-15T00:36:13;27.63;;;18.53;;
7501;SDS011;3792;47.740;7.606;2023-02-15T00:38:40;30.67;;;19.20;;
7501;SDS011;3792;47.740;7.606;2023-02-15T00:41:08;26.67;;;17.90;;
7501;SDS011;3792;47.740;7.606;2023-02-15T00:43:36;38.10;;;18.80;;
7501;SDS011;3792;47.740;7.606;2023-02-15T00:46:04;29.33;;;18.70;;
7501;SDS011;3792;47.740;7.606;2023-02-15T00:48:31;58.47;;;20.03;;
7501;SDS011;3792;47.740;7.606;2023-02-15T00:50:58;25.00;;;18.07;;
7501;SDS011;3792;47.740;7.606;2023-02-15T00:53:26;81.20;;;22.13;;
7501;SDS011;3792;47.740;7.606;2023-02-15T00:55:54;44.73;;;18.93;;
7501;SDS011;3792;47.740;7.606;2023-02-15T00:58:23;52.30;;;19.83;;
7501;SDS011;3792;47.740;7.606;2023-02-15T01:00:50;28.53;;;18.80;;
7501;SDS011;3792;47.740;7.606;2023-02-15T01:03:18;81.63;;;22.03;;
7501;SDS011;3792;47.740;7.606;2023-02-15T01:05:46;31.43;;;18.70;;
7501;SDS011;3792;47.740;7.606;2023-02-15T01:08:14;25.93;;;18.20;;
7501;SDS011;3792;47.740;7.606;2023-02-15T01:10:41;22.87;;;17.20;;
7501;SDS011;3792;47.740;7.606;2023-02-15T01:13:10;25.97;;;18.17;;
7501;SDS011;3792;47.740;7.606;2023-02-15T01:15:39;22.13;;;16.93;;
7501;SDS011;3792;47.740;7.606;2023-02-15T01:18:06;26.13;;;16.23;;
7501;SDS011;3792;47.740;7.606;2023-02-15T01:20:34;23.13;;;17.13;;
7501;SDS011;3792;47.740;7.606;2023-02-15T01:23:04;41.33;;;17.73;;
7501;SDS011;3792;47.740;7.606;2023-02-15T01:25:32;85.27;;;20.83;;
7501;SDS011;3792;47.740;7.606;2023-02-15T01:28:00;76.23;;;19.20;;
7501;SDS011;3792;47.740;7.606;2023-02-15T01:30:27;79.87;;;19.80;;
7501;SDS011;3792;47.740;7.606;2023-02-15T01:32:56;91.17;;;21.30;;
7501;SDS011;3792;47.740;7.606;2023-02-15T01:35:23;34.73;;;17.40;;
7501;SDS011;3792;47.740;7.606;2023-02-15T01:37:50;53.67;;;19.83;;
7501;SDS011;3792;47.740;7.606;2023-02-15T01:40:17;52.47;;;19.57;;
7501;SDS011;3792;47.740;7.606;2023-02-15T01:42:45;42.93;;;18.07;;
7501;SDS011;3792;47.740;7.606;2023-02-15T01:45:18;23.07;;;16.70;;
7501;SDS011;3792;47.740;7.606;2023-02-15T01:47:47;26.10;;;17.00;;
7501;SDS011;3792;47.740;7.606;2023-02-15T01:50:23;30.73;;;18.50;;
7501;SDS011;3792;47.740;7.606;2023-02-15T01:52:55;29.20;;;17.67;;
7501;SDS011;3792;47.740;7.606;2023-02-15T01:55:25;25.20;;;17.50;;
7501;SDS011;3792;47.740;7.606;2023-02-15T01:57:56;24.70;;;16.93;;
7501;SDS011;3792;47.740;7.606;2023-02-15T02:00:23;31.77;;;16.93;;
7501;SDS011;3792;47.740;7.606;2023-02-15T02:02:51;23.93;;;16.37;;
7501;SDS011;3792;47.740;7.606;2023-02-15T02:05:22;24.97;;;16.60;;
7501;SDS011;3792;47.740;7.606;2023-02-15T02:07:50;28.60;;;16.10;;
7501;SDS011;3792;47.740;7.606;2023-02-15T02:10:21;21.57;;;16.17;;
7501;SDS011;3792;47.740;7.606;2023-02-15T02:12:50;19.30;;;14.87;;
7501;SDS011;3792;47.740;7.606;2023-02-15T02:15:23;44.73;;;16.80;;
7501;SDS011;3792;47.740;7.606;2023-02-15T02:18:00;40.00;;;17.80;;
7501;SDS011;3792;47.740;7.606;2023-02-15T02:20:49;112.20;;;19.87;;
7501;SDS011;3792;47.740;7.606;2023-02-15T02:23:34;33.30;;;15.77;;
7501;SDS011;3792;47.740;7.606;2023-02-15T02:26:13;23.17;;;16.00;;
7501;SDS011;3792;47.740;7.606;2023-02-15T02:29:14;21.03;;;14.47;;
7501;SDS011;3792;47.740;7.606;2023-02-15T02:35:16;15.53;;;12.83;;
7501;SDS011;3792;47.740;7.606;2023-02-15T02:37:51;17.87;;;14.13;;
7501;SDS011;3792;47.740;7.606;2023-02-15T02:40:29;20.37;;;13.57;;
7501;SDS011;3792;47.740;7.606;2023-02-15T02:43:02;20.30;;;14.87;;
7501;SDS011;3792;47.740;7.606;2023-02-15T02:45:38;25.90;;;15.90;;
7501;SDS011;3792;47.740;7.606;2023-02-15T02:48:10;19.87;;;14.80;;
7501;SDS011;3792;47.740;7.606;2023-02-15T02:50:41;18.43;;;14.00;;
7501;SDS011;3792;47.740;7.606;2023-02-15T02:53:08;19.13;;;14.40;;
7501;SDS011;3792;47.740;7.606;2023-02-15T02:55:37;18.53;;;14.10;;
7501;SDS011;3792;47.740;7.606;2023-02-15T02:58:08;18.33;;;14.63;;
7501;SDS011;3792;47.740;7.606;2023-02-15T03:00:42;21.57;;;14.80;;
7501;SDS011;3792;47.740;7.606;2023-02-15T03:03:12;30.83;;;15.23;;
7501;SDS011;3792;47.740;7.606;2023-02-15T03:05:47;21.33;;;15.10;;
7501;SDS011;3792;47.740;7.606;2023-02-15T03:08:19;19.93;;;14.17;;
7501;SDS011;3792;47.740;7.606;2023-02-15T03:10:48;19.20;;;13.57;;
7501;SDS011;3792;47.740;7.606;2023-02-15T03:13:19;18.93;;;14.03;;
7501;SDS011;3792;47.740;7.606;2023-02-15T03:15:47;21.03;;;14.23;;
7501;SDS011;3792;47.740;7.606;2023-02-15T03:18:34;18.73;;;14.20;;
7501;SDS011;3792;47.740;7.606;2023-02-15T03:21:07;18.03;;;13.93;;
7501;SDS011;3792;47.740;7.606;2023-02-15T03:23:47;19.93;;;14.17;;
7501;SDS011;3792;47.740;7.606;2023-02-15T03:26:17;26.83;;;15.30;;
7501;SDS011;3792;47.740;7.606;2023-02-15T03:28:47;29.33;;;14.57;;
7501;SDS011;3792;47.740;7.606;2023-02-15T03:31:17;23.43;;;14.63;;
7501;SDS011;3792;47.740;7.606;2023-02-15T03:33:49;29.53;;;15.47;;
7501;SDS011;3792;47.740;7.606;2023-02-15T03:36:22;18.63;;;14.17;;
7501;SDS011;3792;47.740;7.606;2023-02-15T03:38:53;18.27;;;14.23;;
7501;SDS011;3792;47.740;7.606;2023-02-15T03:41:26;17.13;;;13.30;;
7501;SDS011;3792;47.740;7.606;2023-02-15T03:43:58;17.33;;;12.87;;
7501;SDS011;3792;47.740;7.606;2023-02-15T03:46:32;16.97;;;12.77;;
7501;SDS011;3792;47.740;7.606;2023-02-15T03:49:05;16.90;;;13.00;;
7501;SDS011;3792;47.740;7.606;2023-02-15T03:51:42;18.40;;;12.60;;
7501;SDS011;3792;47.740;7.606;2023-02-15T03:54:12;18.43;;;13.80;;
7501;SDS011;3792;47.740;7.606;2023-02-15T03:57:03;16.33;;;12.87;;
7501;SDS011;3792;47.740;7.606;2023-02-15T03:59:44;18.53;;;12.77;;
7501;SDS011;3792;47.740;7.606;2023-02-15T04:02:30;17.03;;;12.63;;
7501;SDS011;3792;47.740;7.606;2023-02-15T04:05:04;18.20;;;12.80;;
7501;SDS011;3792;47.740;7.606;2023-02-15T04:07:33;16.47;;;13.10;;
7501;SDS011;3792;47.740;7.606;2023-02-15T04:10:00;16.80;;;12.37;;
7501;SDS011;3792;47.740;7.606;2023-02-15T04:12:44;17.33;;;13.23;;
7501;SDS011;3792;47.740;7.606;2023-02-15T04:15:11;18.40;;;13.70;;
7501;SDS011;3792;47.740;7.606;2023-02-15T04:17:56;18.43;;;13.73;;
7501;SDS011;3792;47.740;7.606;2023-02-15T04:20:23;20.20;;;14.10;;
7501;SDS011;3792;47.740;7.606;2023-02-15T04:23:09;18.27;;;13.63;;
7501;SDS011;3792;47.740;7.606;2023-02-15T04:25:53;19.60;;;14.67;;
7501;SDS011;3792;47.740;7.606;2023-02-15T04:28:20;19.73;;;13.77;;
7501;SDS011;3792;47.740;7.606;2023-02-15T04:30:47;21.07;;;14.87;;
7501;SDS011;3792;47.740;7.606;2023-02-15T04:33:14;20.27;;;14.73;;
7501;SDS011;3792;47.740;7.606;2023-02-15T04:35:42;22.80;;;16.10;;
7501;SDS011;3792;47.740;7.606;2023-02-15T04:38:12;20.17;;;15.10;;
7501;SDS011;3792;47.740;7.606;2023-02-15T04:40:39;22.67;;;15.10;;
7501;SDS011;3792;47.740;7.606;2023-02-15T04:43:06;23.80;;;16.07;;
7501;SDS011;3792;47.740;7.606;2023-02-15T04:45:33;18.90;;;13.37;;
7501;SDS011;3792;47.740;7.606;2023-02-15T04:48:00;17.43;;;13.53;;
7501;SDS011;3792;47.740;7.606;2023-02-15T04:50:27;16.73;;;13.70;;
7501;SDS011;3792;47.740;7.606;2023-02-15T04:52:54;15.90;;;12.63;;
7501;SDS011;3792;47.740;7.606;2023-02-15T04:55:23;17.67;;;13.10;;
7501;SDS011;3792;47.740;7.606;2023-02-15T04:57:51;18.43;;;13.27;;
7501;SDS011;3792;47.740;7.606;2023-02-15T05:00:18;16.13;;;12.87;;
7501;SDS011;3792;47.740;7.606;2023-02-15T05:02:46;29.20;;;18.20;;
7501;SDS011;3792;47.740;7.606;2023-02-15T05:05:13;18.13;;;13.40;;
7501;SDS011;3792;47.740;7.606;2023-02-15T05:07:40;20.40;;;13.73;;
7501;SDS011;3792;47.740;7.606;2023-02-15T05:10:07;19.93;;;14.13;;
7501;SDS011;3792;47.740;7.606;2023-02-15T05:12:36;18.90;;;13.87;;
7501;SDS011;3792;47.740;7.606;2023-02-15T05:15:03;17.33;;;13.40;;
7501;SDS011;3792;47.740;7.606;2023-02-15T05:17:30;21.17;;;13.80;;
7501;SDS011;3792;47.740;7.606;2023-02-15T05:19:57;19.13;;;13.53;;
7501;SDS011;3792;47.740;7.606;2023-02-15T05:22:24;16.33;;;13.17;;
7501;SDS011;3792;47.740;7.606;2023-02-15T05:24:51;16.57;;;12.60;;
7501;SDS011;3792;47.740;7.606;2023-02-15T05:27:37;26.33;;;14.37;;
7501;SDS011;3792;47.740;7.606;2023-02-15T05:30:21;19.90;;;13.73;;
7501;SDS011;3792;47.740;7.606;2023-02-15T05:32:48;17.97;;;13.37;;
7501;SDS011;3792;47.740;7.606;2023-02-15T05:35:16;19.27;;;13.60;;
7501;SDS011;3792;47.740;7.606;2023-02-15T05:37:43;25.43;;;16.20;;
7501;SDS011;3792;47.740;7.606;2023-02-15T05:40:10;27.43;;;14.90;;
7501;SDS011;3792;47.740;7.606;2023-02-15T05:42:39;30.27;;;16.67;;
7501;SDS011;3792;47.740;7.606;2023-02-15T05:45:06;23.17;;;16.10;;
7501;SDS011;3792;47.740;7.606;2023-02-15T05:47:34;24.00;;;14.87;;
7501;SDS011;3792;47.740;7.606;2023-02-15T05:50:01;24.97;;;15.07;;
7501;SDS011;3792;47.740;7.606;2023-02-15T05:52:28;24.00;;;15.10;;
7501;SDS011;3792;47.740;7.606;2023-02-15T05:54:55;25.77;;;15.80;;
7501;SDS011;3792;47.740;7.606;2023-02-15T05:57:23;23.93;;;16.10;;
7501;SDS011;3792;47.740;7.606;2023-02-15T05:59:51;21.13;;;15.07;;
7501;SDS011;3792;47.740;7.606;2023-02-15T06:02:18;23.73;;;15.50;;
7501;SDS011;3792;47.740;7.606;2023-02-15T06:04:45;21.63;;;14.87;;
7501;SDS011;3792;47.740;7.606;2023-02-15T06:07:12;23.37;;;15.43;;
7501;SDS011;3792;47.740;7.606;2023-02-15T06:09:39;20.93;;;14.77;;
7501;SDS011;3792;47.740;7.606;2023-02-15T06:12:06;20.70;;;14.43;;
7501;SDS011;3792;47.740;7.606;2023-02-15T06:14:33;21.97;;;14.77;;
7501;SDS011;3792;47.740;7.606;2023-02-15T06:17:02;19.43;;;14.37;;
7501;SDS011;3792;47.740;7.606;2023-02-15T06:19:29;17.23;;;13.20;;
7501;SDS011;3792;47.740;7.606;2023-02-15T06:21:56;19.20;;;13.33;;
7501;SDS011;3792;47.740;7.606;2023-02-15T06:24:23;22.03;;;15.50;;
7501;SDS011;3792;47.740;7.606;2023-02-15T06:26:50;20.30;;;14.90;;
7501;SDS011;3792;47.740;7.606;2023-02-15T06:29:17;16.70;;;12.70;;
7501;SDS011;3792;47.740;7.606;2023-02-15T06:31:44;17.40;;;13.23;;
7501;SDS011;3792;47.740;7.606;2023-02-15T06:34:12;16.77;;;12.17;;
7501;SDS011;3792;47.740;7.606;2023-02-15T06:36:39;18.77;;;12.83;;
7501;SDS011;3792;47.740;7.606;2023-02-15T06:39:06;16.00;;;12.97;;
7501;SDS011;3792;47.740;7.606;2023-02-15T06:41:35;15.13;;;12.17;;
7501;SDS011;3792;47.740;7.606;2023-02-15T06:44:02;19.30;;;13.77;;
7501;SDS011;3792;47.740;7.606;2023-02-15T06:46:29;19.53;;;13.03;;
7501;SDS011;3792;47.740;7.606;2023-02-15T06:48:56;19.00;;;13.07;;
7501;SDS011;3792;47.740;7.606;2023-02-15T06:51:24;22.87;;;14.07;;
7501;SDS011;3792;47.740;7.606;2023-02-15T06:53:51;15.80;;;11.83;;
7501;SDS011;3792;47.740;7.606;2023-02-15T06:56:18;13.77;;;10.97;;
7501;SDS011;3792;47.740;7.606;2023-02-15T06:58:45;16.50;;;12.13;;
7501;SDS011;3792;47.740;7.606;2023-02-15T07:01:14;15.93;;;12.13;;
7501;SDS011;3792;47.740;7.606;2023-02-15T07:03:42;17.13;;;12.37;;
7501;SDS011;3792;47.740;7.606;2023-02-15T07:06:09;16.57;;;12.73;;
7501;SDS011;3792;47.740;7.606;2023-02-15T07:08:38;19.13;;;14.27;;
7501;SDS011;3792;47.740;7.606;2023-02-15T07:11:05;17.10;;;12.80;;
7501;SDS011;3792;47.740;7.606;2023-02-15T07:13:50;19.90;;;14.23;;
7501;SDS011;3792;47.740;7.606;2023-02-15T07:16:18;17.80;;;13.73;;
7501;SDS011;3792;47.740;7.606;2023-02-15T07:18:45;19.10;;;14.40;;
7501;SDS011;3792;47.740;7.606;2023-02-15T07:21:13;34.77;;;21.07;;
7501;SDS011;3792;47.740;7.606;2023-02-15T07:23:41;24.13;;;17.77;;
7501;SDS011;3792;47.740;7.606;2023-02-15T07:26:08;25.77;;;18.73;;
7501;SDS011;3792;47.740;7.606;2023-02-15T07:28:36;23.73;;;16.20;;
7501;SDS011;3792;47.740;7.606;2023-02-15T07:31:03;18.53;;;12.90;;
7501;SDS011;3792;47.740;7.606;2023-02-15T07:33:31;20.77;;;14.27;;
7501;SDS011;3792;47.740;7.606;2023-02-15T07:35:58;24.77;;;16.97;;
7501;SDS011;3792;47.740;7.606;2023-02-15T07:38:29;22.57;;;16.30;;
7501;SDS011;3792;47.740;7.606;2023-02-15T07:40:59;25.53;;;17.43;;
7501;SDS011;3792;47.740;7.606;2023-02-15T07:43:27;26.73;;;17.20;;
7501;SDS011;3792;47.740;7.606;2023-02-15T07:45:54;25.37;;;17.17;;
7501;SDS011;3792;47.740;7.606;2023-02-15T07:48:25;24.00;;;17.17;;
7501;SDS011;3792;47.740;7.606;2023-02-15T07:50:52;25.67;;;17.67;;
7501;SDS011;3792;47.740;7.606;2023-02-15T07:53:19;24.87;;;17.00;;
7501;SDS011;3792;47.740;7.606;2023-02-15T07:55:46;22.43;;;16.57;;
7501;SDS011;3792;47.740;7.606;2023-02-15T07:58:15;28.53;;;17.80;;
7501;SDS011;3792;47.740;7.606;2023-02-15T08:00:42;26.40;;;18.80;;
7501;SDS011;3792;47.740;7.606;2023-02-15T08:03:23;31.97;;;20.90;;
7501;SDS011;3792;47.740;7.606;2023-02-15T08:05:54;36.57;;;23.43;;
7501;SDS011;3792;47.740;7.606;2023-02-15T08:08:23;32.40;;;22.40;;
7501;SDS011;3792;47.740;7.606;2023-02-15T08:10:59;30.20;;;21.20;;
7501;SDS011;3792;47.740;7.606;2023-02-15T08:13:46;29.67;;;19.90;;
7501;SDS011;3792;47.740;7.606;2023-02-15T08:16:25;29.20;;;20.13;;
7501;SDS011;3792;47.740;7.606;2023-02-15T08:18:53;36.67;;;23.43;;
7501;SDS011;3792;47.740;7.606;2023-02-15T08:21:21;32.50;;;22.67;;
7501;SDS011;3792;47.740;7.606;2023-02-15T08:23:48;29.07;;;21.07;;
7501;SDS011;3792;47.740;7.606;2023-02-15T08:26:15;31.20;;;22.53;;
7501;SDS011;3792;47.740;7.606;2023-02-15T08:28:43;27.77;;;20.67;;
7501;SDS011;3792;47.740;7.606;2023-02-15T08:31:13;30.57;;;19.87;;
7501;SDS011;3792;47.740;7.606;2023-02-15T08:33:40;27.90;;;21.13;;
7501;SDS011;3792;47.740;7.606;2023-02-15T08:36:11;26.27;;;19.50;;
7501;SDS011;3792;47.740;7.606;2023-02-15T08:38:39;28.13;;;20.30;;
7501;SDS011;3792;47.740;7.606;2023-02-15T08:41:10;27.80;;;19.43;;
7501;SDS011;3792;47.740;7.606;2023-02-15T08:43:42;25.67;;;18.43;;
7501;SDS011;3792;47.740;7.606;2023-02-15T08:46:11;26.80;;;18.23;;
7501;SDS011;3792;47.740;7.606;2023-02-15T08:48:41;26.33;;;17.97;;
7501;SDS011;3792;47.740;7.606;2023-02-15T08:51:09;31.03;;;22.43;;
7501;SDS011;3792;47.740;7.606;2023-02-15T08:53:38;65.27;;;33.50;;
7501;SDS011;3792;47.740;7.606;2023-02-15T08:56:06;51.97;;;31.10;;
7501;SDS011;3792;47.740;7.606;2023-02-15T08:58:34;49.63;;;29.67;;
7501;SDS011;3792;47.740;7.606;2023-02-15T09:01:07;40.23;;;26.73;;
7501;SDS011;3792;47.740;7.606;2023-02-15T09:03:37;32.30;;;21.87;;
7501;SDS011;3792;47.740;7.606;2023-02-15T09:06:04;26.40;;;19.63;;
7501;SDS011;3792;47.740;7.606;2023-02-15T09:08:32;26.07;;;20.07;;
7501;SDS011;3792;47.740;7.606;2023-02-15T09:11:08;32.97;;;24.37;;
7501;SDS011;3792;47.740;7.606;2023-02-15T09:13:37;31.40;;;20.50;;
7501;SDS011;3792;47.740;7.606;2023-02-15T09:16:05;32.83;;;22.97;;
7501;SDS011;3792;47.740;7.606;2023-02-15T09:18:33;38.77;;;25.27;;
7501;SDS011;3792;47.740;7.606;2023-02-15T09:21:08;36.67;;;25.90;;
7501;SDS011;3792;47.740;7.606;2023-02-15T09:23:38;26.97;;;19.93;;
7501;SDS011;3792;47.740;7.606;2023-02-15T09:26:06;19.50;;;15.27;;
7501;SDS011;3792;47.740;7.606;2023-02-15T09:28:34;18.67;;;13.63;;
7501;SDS011;3792;47.740;7.606;2023-02-15T09:31:06;15.17;;;12.93;;
7501;SDS011;3792;47.740;7.606;2023-02-15T09:33:34;18.63;;;13.37;;
7501;SDS011;3792;47.740;7.606;2023-02-15T09:36:02;16.30;;;12.27;;
7501;SDS011;3792;47.740;7.606;2023-02-15T09:38:31;15.30;;;12.27;;
7501;SDS011;3792;47.740;7.606;2023-02-15T09:41:02;13.27;;;11.87;;
7501;SDS011;3792;47.740;7.606;2023-02-15T09:43:49;15.57;;;11.87;;
7501;SDS011;3792;47.740;7.606;2023-02-15T09:46:28;16.33;;;12.93;;
7501;SDS011;3792;47.740;7.606;2023-02-15T09:49:06;13.87;;;11.77;;
7501;SDS011;3792;47.740;7.606;2023-02-15T09:51:52;15.50;;;12.33;;
7501;SDS011;3792;47.740;7.606;2023-02-15T09:54:35;14.40;;;12.73;;
7501;SDS011;3792;47.740;7.606;2023-02-15T09:57:14;19.73;;;15.03;;
7501;SDS011;3792;47.740;7.606;2023-02-15T09:59:51;28.30;;;17.63;;
7501;SDS011;3792;47.740;7.606;2023-02-15T10:02:29;39.37;;;25.13;;
7501;SDS011;3792;47.740;7.606;2023-02-15T10:05:11;37.50;;;24.23;;
7501;SDS011;3792;47.740;7.606;2023-02-15T10:07:52;19.00;;;15.00;;
7501;SDS011;3792;47.740;7.606;2023-02-15T10:10:43;17.20;;;13.43;;
7501;SDS011;3792;47.740;7.606;2023-02-15T10:13:21;17.47;;;13.03;;
7501;SDS011;3792;47.740;7.606;2023-02-15T10:15:59;20.27;;;13.87;;
7501;SDS011;3792;47.740;7.606;2023-02-15T10:18:49;19.73;;;14.07;;
7501;SDS011;3792;47.740;7.606;2023-02-15T10:21:24;18.60;;;13.83;;
7501;SDS011;3792;47.740;7.606;2023-02-15T10:24:18;17.20;;;13.67;;
7501;SDS011;3792;47.740;7.606;2023-02-15T10:27:03;19.93;;;14.03;;
7501;SDS011;3792;47.740;7.606;2023-02-15T10:29:38;17.80;;;14.03;;
7501;SDS011;3792;47.740;7.606;2023-02-15T10:32:13;17.57;;;14.00;;
7501;SDS011;3792;47.740;7.606;2023-02-15T10:34:50;16.57;;;12.87;;
7501;SDS011;3792;47.740;7.606;2023-02-15T10:40:14;18.17;;;14.40;;
7501;SDS011;3792;47.740;7.606;2023-02-15T10:42:56;17.07;;;13.60;;
7501;SDS011;3792;47.740;7.606;2023-02-15T10:45:35;15.97;;;13.23;;
7501;SDS011;3792;47.740;7.606;2023-02-15T10:48:16;15.60;;;12.93;;
7501;SDS011;3792;47.740;7.606;2023-02-15T10:50:51;15.63;;;13.13;;
7501;SDS011;3792;47.740;7.606;2023-02-15T10:53:27;14.87;;;12.93;;
7501;SDS011;3792;47.740;7.606;2023-02-15T10:56:07;15.90;;;13.00;;
7501;SDS011;3792;47.740;7.606;2023-02-15T10:58:49;15.17;;;12.40;;
7501;SDS011;3792;47.740;7.606;2023-02-15T11:01:25;14.87;;;13.13;;
7501;SDS011;3792;47.740;7.606;2023-02-15T11:04:04;14.77;;;12.67;;
7501;SDS011;3792;47.740;7.606;2023-02-15T11:06:43;14.47;;;12.47;;
7501;SDS011;3792;47.740;7.606;2023-02-15T11:09:16;16.80;;;13.23;;
7501;SDS011;3792;47.740;7.606;2023-02-15T11:11:47;18.87;;;12.77;;
7501;SDS011;3792;47.740;7.606;2023-02-15T11:14:20;15.47;;;12.70;;
7501;SDS011;3792;47.740;7.606;2023-02-15T11:16:50;16.57;;;14.23;;
7501;SDS011;3792;47.740;7.606;2023-02-15T11:19:21;15.97;;;13.67;;
7501;SDS011;3792;47.740;7.606;2023-02-15T11:21:54;16.33;;;13.43;;
7501;SDS011;3792;47.740;7.606;2023-02-15T11:24:25;15.07;;;12.60;;
7501;SDS011;3792;47.740;7.606;2023-02-15T11:26:56;14.53;;;13.00;;
7501;SDS011;3792;47.740;7.606;2023-02-15T11:29:31;15.57;;;13.07;;
7501;SDS011;3792;47.740;7.606;2023-02-15T11:32:02;14.33;;;12.80;;
7501;SDS011;3792;47.740;7.606;2023-02-15T11:34:40;14.43;;;12.93;;
7501;SDS011;3792;47.740;7.606;2023-02-15T11:37:15;14.93;;;13.13;;
7501;SDS011;3792;47.740;7.606;2023-02-15T11:39:45;14.83;;;13.10;;
7501;SDS011;3792;47.740;7.606;2023-02-15T11:42:18;14.93;;;12.70;;
7501;SDS011;3792;47.740;7.606;2023-02-15T11:44:52;15.63;;;12.80;;
7501;SDS011;3792;47.740;7.606;2023-02-15T11:47:25;14.37;;;12.57;;
7501;SDS011;3792;47.740;7.606;2023-02-15T11:49:52;12.37;;;11.10;;
7501;SDS011;3792;47.740;7.606;2023-02-15T11:52:19;16.90;;;13.20;;
7501;SDS011;3792;47.740;7.606;2023-02-15T11:54:47;14.80;;;13.17;;
7501;SDS011;3792;47.740;7.606;2023-02-15T11:57:17;14.57;;;12.90;;
7501;SDS011;3792;47.740;7.606;2023-02-15T11:59:51;15.17;;;12.73;;
7501;SDS011;3792;47.740;7.606;2023-02-15T12:02:22;14.53;;;12.97;;
7501;SDS011;3792;47.740;7.606;2023-02-15T12:04:52;16.17;;;13.27;;
7501;SDS011;3792;47.740;7.606;2023-02-15T12:07:23;17.13;;;12.97;;
7501;SDS011;3792;47.740;7.606;2023-02-15T12:09:55;14.40;;;12.73;;
7501;SDS011;3792;47.740;7.606;2023-02-15T12:12:29;15.80;;;13.33;;
7501;SDS011;3792;47.740;7.606;2023-02-15T12:14:59;15.20;;;12.80;;
7501;SDS011;3792;47.740;7.606;2023-02-15T12:17:28;16.27;;;13.33;;
7501;SDS011;3792;47.740;7.606;2023-02-15T12:19:57;15.37;;;13.70;;
7501;SDS011;3792;47.740;7.606;2023-02-15T12:22:27;17.10;;;13.37;;
7501;SDS011;3792;47.740;7.606;2023-02-15T12:24:58;14.40;;;12.93;;
7501;SDS011;3792;47.740;7.606;2023-02-15T12:27:27;15.40;;;12.50;;
7501;SDS011;3792;47.740;7.606;2023-02-15T12:29:56;14.83;;;13.23;;
7501;SDS011;3792;47.740;7.606;2023-02-15T12:32:30;13.43;;;12.10;;
7501;SDS011;3792;47.740;7.606;2023-02-15T12:35:01;16.60;;;13.10;;
7501;SDS011;3792;47.740;7.606;2023-02-15T12:37:34;14.63;;;12.63;;
7501;SDS011;3792;47.740;7.606;2023-02-15T12:40:02;15.37;;;12.07;;
7501;SDS011;3792;47.740;7.606;2023-02-15T12:42:46;15.73;;;13.03;;
7501;SDS011;3792;47.740;7.606;2023-02-15T12:45:21;16.80;;;13.70;;
7501;SDS011;3792;47.740;7.606;2023-02-15T12:48:07;15.30;;;12.80;;
7501;SDS011;3792;47.740;7.606;2023-02-15T12:50:36;14.33;;;12.57;;
7501;SDS011;3792;47.740;7.606;2023-02-15T12:53:06;16.80;;;12.93;;
7501;SDS011;3792;47.740;7.606;2023-02-15T12:55:39;16.37;;;13.13;;
7501;SDS011;3792;47.740;7.606;2023-02-15T12:58:19;13.63;;;12.27;;
7501;SDS011;3792;47.740;7.606;2023-02-15T13:01:01;13.57;;;12.13;;
7501;SDS011;3792;47.740;7.606;2023-02-15T13:03:36;15.03;;;12.37;;
7501;SDS011;3792;47.740;7.606;2023-02-15T13:06:05;14.77;;;12.67;;
7501;SDS011;3792;47.740;7.606;2023-02-15T13:08:34;17.53;;;12.67;;
7501;SDS011;3792;47.740;7.606;2023-02-15T13:11:04;17.07;;;12.93;;
7501;SDS011;3792;47.740;7.606;2023-02-15T13:13:50;15.13;;;13.47;;
7501;SDS011;3792;47.740;7.606;2023-02-15T13:16:22;17.07;;;13.93;;
7501;SDS011;3792;47.740;7.606;2023-02-15T13:18:56;17.97;;;13.97;;
7501;SDS011;3792;47.740;7.606;2023-02-15T13:21:30;15.17;;;12.93;;
7501;SDS011;3792;47.740;7.606;2023-02-15T13:24:01;17.27;;;13.37;;
7501;SDS011;3792;47.740;7.606;2023-02-15T13:26:31;17.00;;;13.70;;
7501;SDS011;3792;47.740;7.606;2023-02-15T13:29:05;16.90;;;13.80;;
7501;SDS011;3792;47.740;7.606;2023-02-15T13:31:39;15.20;;;13.60;;
7501;SDS011;3792;47.740;7.606;2023-02-15T13:34:08;15.37;;;13.77;;
7501;SDS011;3792;47.740;7.606;2023-02-15T13:36:40;14.07;;;12.33;;
7501;SDS011;3792;47.740;7.606;2023-02-15T13:39:18;17.03;;;13.50;;
7501;SDS011;3792;47.740;7.606;2023-02-15T13:41:57;13.33;;;11.93;;
7501;SDS011;3792;47.740;7.606;2023-02-15T13:47:29;20.57;;;15.30;;
7501;SDS011;3792;47.740;7.606;2023-02-15T13:50:10;17.20;;;15.33;;
7501;SDS011;3792;47.740;7.606;2023-02-15T13:53:09;18.57;;;15.53;;
7501;SDS011;3792;47.740;7.606;2023-02-15T13:55:47;16.47;;;13.63;;
7501;SDS011;3792;47.740;7.606;2023-02-15T13:58:41;15.60;;;13.27;;
7501;SDS011;3792;47.740;7.606;2023-02-15T14:01:27;17.37;;;13.77;;
7501;SDS011;3792;47.740;7.606;2023-02-15T14:04:13;14.60;;;12.33;;
7501;SDS011;3792;47.740;7.606;2023-02-15T14:10:06;13.67;;;11.73;;
7501;SDS011;3792;47.740;7.606;2023-02-15T14:12:54;13.47;;;10.97;;
7501;SDS011;3792;47.740;7.606;2023-02-15T14:15:33;12.07;;;9.10;;
7501;SDS011;3792;47.740;7.606;2023-02-15T14:18:09;12.40;;;8.63;;
7501;SDS011;3792;47.740;7.606;2023-02-15T14:20:56;13.37;;;10.10;;
7501;SDS011;3792;47.740;7.606;2023-02-15T14:23:37;13.50;;;10.83;;
7501;SDS011;3792;47.740;7.606;2023-02-15T14:26:14;10.87;;;9.13;;
7501;SDS011;3792;47.740;7.606;2023-02-15T14:28:49;12.30;;;10.30;;
7501;SDS011;3792;47.740;7.606;2023-02-15T14:31:25;12.03;;;8.83;;
7501;SDS011;3792;47.740;7.606;2023-02-15T14:33:56;11.37;;;10.03;;
7501;SDS011;3792;47.740;7.606;2023-02-15T14:36:26;11.70;;;9.57;;
7501;SDS011;3792;47.740;7.606;2023-02-15T14:38:59;12.97;;;10.60;;
7501;SDS011;3792;47.740;7.606;2023-02-15T14:41:52;11.63;;;9.20;;
7501;SDS011;3792;47.740;7.606;2023-02-15T14:44:22;10.03;;;8.60;;
7501;SDS011;3792;47.740;7.606;2023-02-15T14:46:58;9.00;;;7.03;;
7501;SDS011;3792;47.740;7.606;2023-02-15T14:49:31;8.87;;;6.30;;
7501;SDS011;3792;47.740;7.606;2023-02-15T14:52:02;10.17;;;7.53;;
7501;SDS011;3792;47.740;7.606;2023-02-15T14:57:25;7.57;;;6.37;;
7501;SDS011;3792;47.740;7.606;2023-02-15T14:59:57;9.17;;;7.27;;
7501;SDS011;3792;47.740;7.606;2023-02-15T15:02:27;8.13;;;7.00;;
7501;SDS011;3792;47.740;7.606;2023-02-15T15:05:11;7.97;;;6.40;;
7501;SDS011;3792;47.740;7.606;2023-02-15T15:07:47;9.33;;;6.63;;
7501;SDS011;3792;47.740;7.606;2023-02-15T15:18:56;10.20;;;6.73;;
7501;SDS011;3792;47.740;7.606;2023-02-15T15:33:31;9.17;;;6.57;;
7501;SDS011;3792;47.740;7.606;2023-02-15T15:42:49;8.33;;;6.97;;
7501;SDS011;3792;47.740;7.606;2023-02-15T15:45:40;9.23;;;6.80;;
7501;SDS011;3792;47.740;7.606;2023-02-15T15:48:28;10.67;;;7.50;;
7501;SDS011;3792;47.740;7.606;2023-02-15T15:50:59;9.17;;;6.70;;
7501;SDS011;3792;47.740;7.606;2023-02-15T15:53:31;7.07;;;5.87;;
7501;SDS011;3792;47.740;7.606;2023-02-15T15:56:05;9.40;;;6.93;;
7501;SDS011;3792;47.740;7.606;2023-02-15T15:58:38;9.77;;;6.47;;
7501;SDS011;3792;47.740;7.606;2023-02-15T16:01:13;9.97;;;7.00;;
7501;SDS011;3792;47.740;7.606;2023-02-15T16:03:48;9.10;;;6.87;;